<?xml version="1.0" encoding="UTF-8" standalone="no" ?>
<gpx xmlns="http://www.topografix.com/GPX/1/1" xmlns:xsi="http://www.w3.org/2001/XMLSchema-instance" xsi:schemaLocation="http://www.topografix.com/GPX/1/1 http://www.topografix.com/GPX/1/1/gpx.xsd" version="1.1" creator="VisuGPX - https://www.visugpx.com">
  <metadata>
    <name>Randonnée du 24/06/2025 à 14:39</name>
  </metadata>
  <wpt lat="47.62578" lon="-2.7749">
    <ele>2</ele>
    <name><![CDATA[Point de passage 1]]></name>
    <type><![CDATA[GENERIC]]></type>
  </wpt>
  <wpt lat="47.62005" lon="-2.76201">
    <ele>6</ele>
    <name><![CDATA[Point de passage 2]]></name>
    <type><![CDATA[GENERIC]]></type>
  </wpt>
  <trk>
    <name><![CDATA[Randonnée du 24/06/2025 à 14:39]]></name>
    <trkseg>
      <trkpt lat="47.62578" lon="-2.7749">
        <ele>2</ele>
        <time>2025-06-24T12:39:03.000Z</time>
      </trkpt>
      <trkpt lat="47.62529" lon="-2.77479">
        <ele>4</ele>
        <time>2025-06-24T12:40:21.000Z</time>
      </trkpt>
      <trkpt lat="47.62483" lon="-2.77479">
        <ele>8</ele>
        <time>2025-06-24T12:41:54.000Z</time>
      </trkpt>
      <trkpt lat="47.62402" lon="-2.77502">
        <ele>15</ele>
        <time>2025-06-24T12:44:41.000Z</time>
      </trkpt>
      <trkpt lat="47.62365" lon="-2.77517">
        <ele>14</ele>
        <time>2025-06-24T12:45:26.000Z</time>
      </trkpt>
      <trkpt lat="47.62315" lon="-2.77429">
        <ele>15</ele>
        <time>2025-06-24T12:47:05.000Z</time>
      </trkpt>
      <trkpt lat="47.62315" lon="-2.77388">
        <ele>16</ele>
        <time>2025-06-24T12:47:47.000Z</time>
      </trkpt>
      <trkpt lat="47.62305" lon="-2.77341">
        <ele>15</ele>
        <time>2025-06-24T12:48:25.000Z</time>
      </trkpt>
      <trkpt lat="47.62274" lon="-2.77308">
        <ele>14</ele>
        <time>2025-06-24T12:49:09.000Z</time>
      </trkpt>
      <trkpt lat="47.62319" lon="-2.77241">
        <ele>12</ele>
        <time>2025-06-24T12:50:23.000Z</time>
      </trkpt>
      <trkpt lat="47.62268" lon="-2.77091">
        <ele>12</ele>
        <time>2025-06-24T12:52:33.000Z</time>
      </trkpt>
      <trkpt lat="47.62224" lon="-2.76991">
        <ele>13</ele>
        <time>2025-06-24T12:54:15.000Z</time>
      </trkpt>
      <trkpt lat="47.62189" lon="-2.76874">
        <ele>10</ele>
        <time>2025-06-24T12:55:54.000Z</time>
      </trkpt>
      <trkpt lat="47.62157" lon="-2.76833">
        <ele>10</ele>
        <time>2025-06-24T12:56:42.000Z</time>
      </trkpt>
      <trkpt lat="47.62114" lon="-2.76821">
        <ele>9</ele>
        <time>2025-06-24T12:57:33.000Z</time>
      </trkpt>
      <trkpt lat="47.6207" lon="-2.76786">
        <ele>7</ele>
        <time>2025-06-24T12:58:30.000Z</time>
      </trkpt>
      <trkpt lat="47.62033" lon="-2.76657">
        <ele>10</ele>
        <time>2025-06-24T13:00:49.000Z</time>
      </trkpt>
      <trkpt lat="47.62058" lon="-2.76616">
        <ele>10</ele>
        <time>2025-06-24T13:01:32.000Z</time>
      </trkpt>
      <trkpt lat="47.62019" lon="-2.76516">
        <ele>11</ele>
        <time>2025-06-24T13:03:12.000Z</time>
      </trkpt>
      <trkpt lat="47.61973" lon="-2.76378">
        <ele>13</ele>
        <time>2025-06-24T13:05:31.000Z</time>
      </trkpt>
      <trkpt lat="47.61918" lon="-2.76267">
        <ele>11</ele>
        <time>2025-06-24T13:07:18.000Z</time>
      </trkpt>
      <trkpt lat="47.62005" lon="-2.76201">
        <ele>6</ele>
        <time>2025-06-24T13:09:10.000Z</time>
      </trkpt>
    </trkseg>
  </trk>
</gpx>